createdAt,value
2018-07-05T00:00:15.937Z,0.00
2018-07-05T00:01:15.898Z,0.00
2018-07-05T00:02:15.902Z,0.00
2018-07-05T00:03:15.874Z,0.00
2018-07-05T00:04:15.861Z,0.00
2018-07-05T00:05:15.912Z,0.00
2018-07-05T00:06:15.868Z,0.00
2018-07-05T00:07:15.834Z,0.00
2018-07-05T00:08:15.777Z,0.00
2018-07-05T00:09:15.803Z,0.00
2018-07-05T00:10:15.796Z,0.00
2018-07-05T00:11:15.772Z,0.00
2018-07-05T00:12:15.773Z,0.00
2018-07-05T00:13:15.768Z,0.00
2018-07-05T00:14:15.751Z,0.00
2018-07-05T00:15:15.705Z,0.00
2018-07-05T00:16:15.762Z,0.00
2018-07-05T00:17:15.724Z,0.00
2018-07-05T00:18:15.664Z,0.00
2018-07-05T00:19:15.694Z,0.00
2018-07-05T00:20:15.691Z,0.00
2018-07-05T00:21:15.704Z,0.00
2018-07-05T00:22:15.665Z,0.00
2018-07-05T00:23:15.665Z,0.00
2018-07-05T00:24:15.646Z,0.00
2018-07-05T00:25:15.637Z,0.00
2018-07-05T00:26:15.603Z,0.00
2018-07-05T00:27:15.611Z,0.00
2018-07-05T00:28:15.606Z,0.00
2018-07-05T00:29:15.594Z,0.00
2018-07-05T00:30:15.577Z,0.00
2018-07-05T00:31:15.603Z,0.00
2018-07-05T00:32:15.559Z,0.00
2018-07-05T00:33:15.551Z,0.00
2018-07-05T00:34:15.493Z,0.00
2018-07-05T00:35:15.525Z,0.00
2018-07-05T00:36:15.637Z,0.00
2018-07-05T00:37:15.506Z,0.00
2018-07-05T00:38:15.494Z,0.00
2018-07-05T00:39:15.480Z,0.00
2018-07-05T00:40:15.428Z,0.00
2018-07-05T00:41:15.466Z,0.00
2018-07-05T00:42:15.474Z,0.00
2018-07-05T00:43:15.396Z,0.00
2018-07-05T00:44:15.434Z,0.00
2018-07-05T00:45:15.415Z,0.00
2018-07-05T00:46:15.406Z,0.00
2018-07-05T00:47:15.403Z,0.00
2018-07-05T00:48:15.411Z,0.00
2018-07-05T00:49:15.377Z,0.00
2018-07-05T00:50:15.364Z,0.00
2018-07-05T00:51:15.355Z,0.00
2018-07-05T00:52:15.345Z,0.00
2018-07-05T00:53:15.603Z,0.00
2018-07-05T00:54:15.322Z,0.00
2018-07-05T00:55:15.284Z,0.00
2018-07-05T00:56:15.299Z,0.00
2018-07-05T00:57:15.293Z,0.00
2018-07-05T00:58:15.233Z,0.00
2018-07-05T00:59:15.301Z,0.00
2018-07-05T01:00:15.268Z,0.00
2018-07-05T01:01:15.244Z,0.00
2018-07-05T01:02:15.230Z,0.00
2018-07-05T01:03:15.225Z,0.00
2018-07-05T01:04:15.237Z,0.00
2018-07-05T01:05:15.202Z,0.00
2018-07-05T01:06:15.196Z,0.00
2018-07-05T01:07:15.181Z,0.00
2018-07-05T01:08:15.172Z,0.00
2018-07-05T01:09:15.186Z,0.00
2018-07-05T01:10:15.147Z,0.00
2018-07-05T01:11:15.108Z,0.00
2018-07-05T01:12:15.125Z,0.00
2018-07-05T01:13:15.114Z,0.00
2018-07-05T01:14:15.138Z,0.00
2018-07-05T01:15:15.116Z,0.00
2018-07-05T01:16:15.043Z,0.00
2018-07-05T01:17:15.071Z,0.00
2018-07-05T01:18:15.064Z,0.00
2018-07-05T01:19:15.049Z,0.00
2018-07-05T01:20:15.061Z,0.00
2018-07-05T01:21:15.039Z,0.00
2018-07-05T01:22:15.019Z,0.00
2018-07-05T01:23:15.007Z,0.00
2018-07-05T01:24:15.035Z,0.00
2018-07-05T01:25:15.007Z,0.00
2018-07-05T01:26:14.977Z,0.00
2018-07-05T01:27:14.929Z,0.00
2018-07-05T01:28:14.952Z,0.00
2018-07-05T01:29:14.943Z,0.00
2018-07-05T01:30:14.971Z,0.00
2018-07-05T01:31:14.943Z,0.00
2018-07-05T01:32:14.911Z,0.00
2018-07-05T01:33:14.895Z,0.00
2018-07-05T01:34:14.887Z,0.00
2018-07-05T01:35:14.844Z,0.00
2018-07-05T01:36:14.880Z,0.00
2018-07-05T01:37:14.856Z,0.00
2018-07-05T01:38:14.842Z,0.00
2018-07-05T01:39:14.831Z,0.00
2018-07-05T01:40:14.825Z,0.00
2018-07-05T01:41:14.833Z,0.00
2018-07-05T01:42:14.800Z,0.00
2018-07-05T01:43:14.787Z,0.00
2018-07-05T01:44:14.776Z,0.00
2018-07-05T01:45:14.766Z,0.00
2018-07-05T01:46:14.755Z,0.00
2018-07-05T01:47:14.764Z,0.00
2018-07-05T01:48:14.730Z,0.00
2018-07-05T01:49:14.723Z,0.00
2018-07-05T01:50:14.716Z,0.00
2018-07-05T01:51:14.661Z,0.00
2018-07-05T01:52:14.714Z,0.00
2018-07-05T01:53:14.683Z,0.00
2018-07-05T01:54:14.624Z,0.00
2018-07-05T01:55:14.657Z,0.00
2018-07-05T01:56:14.655Z,0.00
2018-07-05T01:57:14.663Z,0.00
2018-07-05T01:58:14.587Z,0.00
2018-07-05T01:59:14.611Z,0.00
2018-07-05T02:00:14.599Z,0.00
2018-07-05T02:01:14.598Z,0.00
2018-07-05T02:02:14.604Z,0.00
2018-07-05T02:03:14.571Z,0.00
2018-07-05T02:04:14.556Z,0.00
2018-07-05T02:05:14.550Z,0.00
2018-07-05T02:06:14.540Z,0.00
2018-07-05T02:07:14.699Z,0.00
2018-07-05T02:08:14.473Z,0.00
2018-07-05T02:09:14.512Z,0.00
2018-07-05T02:10:14.454Z,0.00
2018-07-05T02:11:14.488Z,0.00
2018-07-05T02:12:14.470Z,0.00
2018-07-05T02:13:14.733Z,0.00
2018-07-05T02:14:14.454Z,0.00
2018-07-05T02:15:14.437Z,0.00
2018-07-05T02:16:14.431Z,0.00
2018-07-05T02:17:14.435Z,0.00
2018-07-05T02:18:14.408Z,0.00
2018-07-05T02:19:14.415Z,0.00
2018-07-05T02:20:14.387Z,0.00
2018-07-05T02:21:14.330Z,0.00
2018-07-05T02:22:14.369Z,0.00
2018-07-05T02:23:14.342Z,0.00
2018-07-05T02:24:14.346Z,0.00
2018-07-05T02:25:14.296Z,0.00
2018-07-05T02:26:14.320Z,0.00
2018-07-05T02:27:14.308Z,0.00
2018-07-05T02:28:14.299Z,0.00
2018-07-05T02:29:14.310Z,0.00
2018-07-05T02:30:14.285Z,0.00
2018-07-05T02:31:14.389Z,0.00
2018-07-05T02:32:14.216Z,0.00
2018-07-05T02:33:14.248Z,0.00
2018-07-05T02:34:14.308Z,0.00
2018-07-05T02:35:14.223Z,0.00
2018-07-05T02:36:14.213Z,0.00
2018-07-05T02:37:14.202Z,0.00
2018-07-05T02:38:14.196Z,0.00
2018-07-05T02:39:14.178Z,0.00
2018-07-05T02:40:14.200Z,0.00
2018-07-05T02:41:14.156Z,0.00
2018-07-05T02:42:14.107Z,0.00
2018-07-05T02:43:14.137Z,0.00
2018-07-05T02:44:14.130Z,0.00
2018-07-05T02:45:14.105Z,0.00
2018-07-05T02:46:14.103Z,0.00
2018-07-05T02:47:14.063Z,0.00
2018-07-05T02:48:14.083Z,0.00
2018-07-05T02:49:14.075Z,0.00
2018-07-05T02:50:14.134Z,0.00
2018-07-05T02:51:14.062Z,0.00
2018-07-05T02:52:14.052Z,0.00
2018-07-05T02:53:14.039Z,0.00
2018-07-05T02:54:14.016Z,0.00
2018-07-05T02:55:14.024Z,0.00
2018-07-05T02:56:13.998Z,0.00
2018-07-05T02:57:13.947Z,0.00
2018-07-05T02:58:13.981Z,0.00
2018-07-05T02:59:13.966Z,0.00
2018-07-05T03:00:13.954Z,0.00
2018-07-05T03:01:13.964Z,0.00
2018-07-05T03:02:13.933Z,0.00
2018-07-05T03:03:13.881Z,0.00
2018-07-05T03:04:13.908Z,0.00
2018-07-05T03:05:13.895Z,0.00
2018-07-05T03:06:13.959Z,0.00
2018-07-05T03:07:13.873Z,0.00
2018-07-05T03:08:13.864Z,0.00
2018-07-05T03:09:13.855Z,0.00
2018-07-05T03:10:13.842Z,0.00
2018-07-05T03:11:13.840Z,0.00
2018-07-05T03:12:13.847Z,0.00
2018-07-05T03:13:13.806Z,0.00
2018-07-05T03:14:13.751Z,0.00
2018-07-05T03:15:13.787Z,5.62
2018-07-05T03:16:13.771Z,5.62
2018-07-05T03:17:13.764Z,5.62
2018-07-05T03:18:13.774Z,5.62
2018-07-05T03:19:13.758Z,5.62
2018-07-05T03:20:13.734Z,5.62
2018-07-05T03:21:13.725Z,5.62
2018-07-05T03:22:13.713Z,5.62
2018-07-05T03:23:13.727Z,5.62
2018-07-05T03:24:13.687Z,11.25
2018-07-05T03:25:13.676Z,11.25
2018-07-05T03:26:13.667Z,11.25
2018-07-05T03:27:13.624Z,11.25
2018-07-05T03:28:13.647Z,11.25
2018-07-05T03:29:13.656Z,11.25
2018-07-05T03:30:13.626Z,16.88
2018-07-05T03:31:13.611Z,16.88
2018-07-05T03:32:13.600Z,16.88
2018-07-05T03:33:13.593Z,16.88
2018-07-05T03:34:13.600Z,16.88
2018-07-05T03:35:13.571Z,16.88
2018-07-05T03:36:13.559Z,16.88
2018-07-05T03:37:13.548Z,22.50
2018-07-05T03:38:13.535Z,22.50
2018-07-05T03:39:13.651Z,22.50
2018-07-05T03:40:13.517Z,28.12
2018-07-05T03:41:13.502Z,28.12
2018-07-05T03:42:13.486Z,28.12
2018-07-05T03:43:13.443Z,28.12
2018-07-05T03:44:13.468Z,33.75
2018-07-05T03:45:13.481Z,33.75
2018-07-05T03:46:13.481Z,33.75
2018-07-05T03:47:13.437Z,33.75
2018-07-05T03:48:13.424Z,33.75
2018-07-05T03:49:13.414Z,33.75
2018-07-05T03:50:13.549Z,33.75
2018-07-05T03:51:13.351Z,33.75
2018-07-05T03:52:13.397Z,33.75
2018-07-05T03:53:13.371Z,33.75
2018-07-05T03:54:13.356Z,33.75
2018-07-05T03:55:13.348Z,33.75
2018-07-05T03:56:13.364Z,39.38
2018-07-05T03:57:13.325Z,39.38
2018-07-05T03:58:13.323Z,39.38
2018-07-05T03:59:13.306Z,39.38
2018-07-05T04:00:13.294Z,39.38
2018-07-05T04:01:13.307Z,39.38
2018-07-05T04:02:13.332Z,39.38
2018-07-05T04:03:13.263Z,45.00
2018-07-05T04:04:13.247Z,45.00
2018-07-05T04:05:13.239Z,45.00
2018-07-05T04:06:13.245Z,50.62
2018-07-05T04:07:13.316Z,50.62
2018-07-05T04:08:13.217Z,50.62
2018-07-05T04:09:13.199Z,50.62
2018-07-05T04:10:13.185Z,50.62
2018-07-05T04:11:13.330Z,56.25
2018-07-05T04:12:13.167Z,56.25
2018-07-05T04:13:13.153Z,61.88
2018-07-05T04:14:13.148Z,61.88
2018-07-05T04:15:13.138Z,61.88
2018-07-05T04:16:13.128Z,61.88
2018-07-05T04:17:13.137Z,61.88
2018-07-05T04:18:13.096Z,61.88
2018-07-05T04:19:13.087Z,61.88
2018-07-05T04:20:13.040Z,61.88
2018-07-05T04:21:13.085Z,61.88
2018-07-05T04:22:13.057Z,67.50
2018-07-05T04:23:13.002Z,67.50
2018-07-05T04:24:13.040Z,67.50
2018-07-05T04:25:13.028Z,67.50
2018-07-05T04:26:13.107Z,73.12
2018-07-05T04:27:13.001Z,73.12
2018-07-05T04:28:12.996Z,73.12
2018-07-05T04:29:12.977Z,78.75
2018-07-05T04:30:12.964Z,78.75
2018-07-05T04:31:12.979Z,84.38
2018-07-05T04:32:12.944Z,84.38
2018-07-05T04:33:12.937Z,84.38
2018-07-05T04:34:12.966Z,90.00
2018-07-05T04:35:12.913Z,95.62
2018-07-05T04:36:13.166Z,95.62
2018-07-05T04:37:12.894Z,101.25
2018-07-05T04:38:12.880Z,101.25
2018-07-05T04:39:12.831Z,101.25
2018-07-05T04:40:12.858Z,106.88
2018-07-05T04:41:12.847Z,112.50
2018-07-05T04:42:12.912Z,112.50
2018-07-05T04:43:12.785Z,118.12
2018-07-05T04:44:12.817Z,123.75
2018-07-05T04:45:12.809Z,129.38
2018-07-05T04:46:12.809Z,140.62
2018-07-05T04:47:12.820Z,146.25
2018-07-05T04:48:12.775Z,151.88
2018-07-05T04:49:12.762Z,157.50
2018-07-05T04:50:12.754Z,163.12
2018-07-05T04:51:12.742Z,174.38
2018-07-05T04:52:12.756Z,180.00
2018-07-05T04:53:12.681Z,191.25
2018-07-05T04:54:12.707Z,196.88
2018-07-05T04:55:12.701Z,196.88
2018-07-05T04:56:12.689Z,202.50
2018-07-05T04:57:12.676Z,202.50
2018-07-05T04:58:12.688Z,208.12
2018-07-05T04:59:12.653Z,208.12
2018-07-05T05:00:12.644Z,208.12
2018-07-05T05:01:12.636Z,202.50
2018-07-05T05:02:12.646Z,219.38
2018-07-05T05:03:12.573Z,219.38
2018-07-05T05:04:12.604Z,219.38
2018-07-05T05:05:12.590Z,225.00
2018-07-05T05:06:12.602Z,225.00
2018-07-05T05:07:12.566Z,247.50
2018-07-05T05:08:57.769Z,236.25
2018-07-05T05:09:57.739Z,236.25
2018-07-05T05:10:57.726Z,236.25
2018-07-05T05:11:57.719Z,241.88
2018-07-05T05:12:57.730Z,247.50
2018-07-05T05:13:57.699Z,253.12
2018-07-05T05:14:57.705Z,258.75
2018-07-05T05:15:57.672Z,258.75
2018-07-05T05:16:57.709Z,264.38
2018-07-05T05:17:57.678Z,270.00
2018-07-05T05:18:57.691Z,270.00
2018-07-05T05:19:57.630Z,275.62
2018-07-05T05:20:57.619Z,275.62
2018-07-05T05:21:57.758Z,275.62
2018-07-05T05:22:57.770Z,275.62
2018-07-05T05:23:57.603Z,275.62
2018-07-05T05:24:57.616Z,281.25
2018-07-05T05:25:57.565Z,286.88
2018-07-05T05:26:57.570Z,286.88
2018-07-05T05:27:57.545Z,286.88
2018-07-05T05:28:57.569Z,292.50
2018-07-05T05:29:57.569Z,298.12
2018-07-05T05:30:57.536Z,315.00
2018-07-05T05:31:57.515Z,331.88
2018-07-05T05:32:57.495Z,343.12
2018-07-05T05:33:57.505Z,343.12
2018-07-05T05:34:57.494Z,326.25
2018-07-05T05:35:57.456Z,399.38
2018-07-05T05:36:57.440Z,416.25
2018-07-05T05:37:57.519Z,376.88
2018-07-05T05:38:57.455Z,348.75
2018-07-05T05:39:57.435Z,331.88
2018-07-05T05:40:57.356Z,331.88
2018-07-05T05:41:57.393Z,331.88
2018-07-05T05:42:57.385Z,343.12
2018-07-05T05:43:57.370Z,343.12
2018-07-05T05:44:57.408Z,337.50
2018-07-05T05:45:57.314Z,343.12
2018-07-05T05:46:57.337Z,337.50
2018-07-05T05:47:57.324Z,343.12
2018-07-05T05:48:57.316Z,343.12
2018-07-05T05:49:57.325Z,343.12
2018-07-05T05:50:57.290Z,343.12
2018-07-05T05:51:57.284Z,348.75
2018-07-05T05:52:57.270Z,348.75
2018-07-05T05:53:57.223Z,354.38
2018-07-05T05:54:57.207Z,365.62
2018-07-05T05:55:57.254Z,371.25
2018-07-05T05:56:57.184Z,376.88
2018-07-05T05:57:57.221Z,382.50
2018-07-05T05:58:57.205Z,376.88
2018-07-05T05:59:57.216Z,382.50
2018-07-05T06:00:57.212Z,376.88
2018-07-05T06:01:57.213Z,376.88
2018-07-05T06:02:57.160Z,360.00
2018-07-05T06:03:57.169Z,360.00
2018-07-05T06:04:57.143Z,382.50
2018-07-05T06:05:57.161Z,388.12
2018-07-05T06:06:57.121Z,393.75
2018-07-05T06:07:57.126Z,399.38
2018-07-05T06:08:57.093Z,399.38
2018-07-05T06:09:57.087Z,405.00
2018-07-05T06:10:57.098Z,410.62
2018-07-05T06:11:57.074Z,416.25
2018-07-05T06:12:57.051Z,416.25
2018-07-05T06:13:57.046Z,416.25
2018-07-05T06:14:57.031Z,421.88
2018-07-05T06:15:57.044Z,433.12
2018-07-05T06:16:57.007Z,438.75
2018-07-05T06:17:57.002Z,444.38
2018-07-05T06:18:57.006Z,450.00
2018-07-05T06:19:56.983Z,450.00
2018-07-05T06:20:57.050Z,455.62
2018-07-05T06:21:56.958Z,455.62
2018-07-05T06:22:56.945Z,450.00
2018-07-05T06:23:56.895Z,444.38
2018-07-05T06:24:56.930Z,450.00
2018-07-05T06:25:56.932Z,450.00
2018-07-05T06:26:56.903Z,466.88
2018-07-05T06:27:56.903Z,472.50
2018-07-05T06:28:56.880Z,483.75
2018-07-05T06:29:56.874Z,523.12
2018-07-05T06:30:56.880Z,573.75
2018-07-05T06:31:56.852Z,765.00
2018-07-05T06:32:56.841Z,1136.25
2018-07-05T06:33:56.791Z,1417.50
2018-07-05T06:34:56.820Z,1501.88
2018-07-05T06:35:56.844Z,1518.75
2018-07-05T06:36:56.761Z,1546.88
2018-07-05T06:37:56.781Z,1524.38
2018-07-05T06:38:56.773Z,1282.50
2018-07-05T06:39:56.770Z,1333.12
2018-07-05T06:40:56.771Z,1423.12
2018-07-05T06:41:56.742Z,1423.12
2018-07-05T06:42:56.737Z,1355.62
2018-07-05T06:43:56.722Z,1417.50
2018-07-05T06:44:56.721Z,1389.38
2018-07-05T06:45:56.739Z,1417.50
2018-07-05T06:46:56.691Z,1361.25
2018-07-05T06:47:56.688Z,1282.50
2018-07-05T06:48:56.667Z,1220.62
2018-07-05T06:49:56.655Z,1170.00
2018-07-05T06:50:56.675Z,1276.88
2018-07-05T06:51:56.642Z,1248.75
2018-07-05T06:52:56.671Z,1271.25
2018-07-05T06:53:56.609Z,1400.62
2018-07-05T06:54:56.604Z,1462.50
2018-07-05T06:55:56.623Z,1535.62
2018-07-05T06:56:56.586Z,1490.62
2018-07-05T06:57:56.571Z,1473.75
2018-07-05T06:58:56.580Z,1445.62
2018-07-05T06:59:56.550Z,1361.25
2018-07-05T07:00:56.576Z,1445.62
2018-07-05T07:01:56.541Z,1490.62
2018-07-05T07:02:56.522Z,1485.00
2018-07-05T07:03:56.517Z,1490.62
2018-07-05T07:04:56.501Z,1530.00
2018-07-05T07:05:56.517Z,1501.88
2018-07-05T07:06:56.489Z,1428.75
2018-07-05T07:07:56.475Z,1406.25
2018-07-05T07:08:56.464Z,1288.12
2018-07-05T07:09:56.464Z,1372.50
2018-07-05T07:10:56.478Z,1411.88
2018-07-05T07:11:56.428Z,1271.25
2018-07-05T07:12:56.418Z,1310.62
2018-07-05T07:13:56.468Z,1411.88
2018-07-05T07:14:56.413Z,1366.88
2018-07-05T07:15:56.490Z,1316.25
2018-07-05T07:16:56.376Z,1271.25
2018-07-05T07:17:56.381Z,1361.25
2018-07-05T07:18:56.321Z,1305.00
2018-07-05T07:19:56.348Z,1361.25
2018-07-05T07:20:56.370Z,1411.88
2018-07-05T07:21:56.348Z,1580.62
2018-07-05T07:22:56.962Z,883.12
2018-07-05T07:23:56.308Z,860.62
2018-07-05T07:24:56.303Z,798.75
2018-07-05T07:25:56.298Z,843.75
2018-07-05T07:26:56.305Z,860.62
2018-07-05T07:27:56.272Z,1147.50
2018-07-05T07:28:56.256Z,990.00
2018-07-05T07:29:56.211Z,798.75
2018-07-05T07:30:56.243Z,832.50
2018-07-05T07:31:56.319Z,888.75
2018-07-05T07:32:56.174Z,950.62
2018-07-05T07:33:56.207Z,1029.38
2018-07-05T07:34:56.202Z,843.75
2018-07-05T07:35:56.202Z,916.88
2018-07-05T07:36:56.202Z,905.62
2018-07-05T07:37:56.216Z,1102.50
2018-07-05T07:38:56.160Z,1006.88
2018-07-05T07:39:56.144Z,1220.62
2018-07-05T07:40:56.140Z,883.12
2018-07-05T07:41:56.148Z,905.62
2018-07-05T07:42:56.125Z,1603.12
2018-07-05T07:43:56.101Z,1603.12
2018-07-05T07:44:56.078Z,1681.88
2018-07-05T07:45:56.044Z,1569.38
2018-07-05T07:46:56.101Z,1575.00
2018-07-05T07:47:56.069Z,1456.88
2018-07-05T07:48:56.016Z,1541.25
2018-07-05T07:49:56.049Z,1603.12
2018-07-05T07:50:56.042Z,1636.88
2018-07-05T07:51:56.066Z,1659.38
2018-07-05T07:52:56.013Z,1755.00
2018-07-05T07:53:56.131Z,1496.25
2018-07-05T07:54:56.001Z,1254.38
2018-07-05T07:55:55.982Z,995.62
2018-07-05T07:56:55.997Z,916.88
2018-07-05T07:57:55.918Z,1018.12
2018-07-05T07:58:55.960Z,793.12
2018-07-05T07:59:55.969Z,956.25
2018-07-05T08:00:55.938Z,1023.75
2018-07-05T08:01:55.951Z,1085.62
2018-07-05T08:02:55.918Z,1293.75
2018-07-05T08:03:55.857Z,1158.75
2018-07-05T08:04:55.938Z,950.62
2018-07-05T08:05:56.594Z,1428.75
2018-07-05T08:06:55.903Z,1389.38
2018-07-05T08:07:55.933Z,1350.00
2018-07-05T08:08:55.864Z,1147.50
2018-07-05T08:09:55.863Z,1181.25
2018-07-05T08:10:55.834Z,1451.25
2018-07-05T08:11:55.843Z,1710.00
2018-07-05T08:12:55.765Z,1653.75
2018-07-05T08:13:55.799Z,1704.38
2018-07-05T08:14:55.804Z,1535.62
2018-07-05T08:15:55.774Z,1501.88
2018-07-05T08:16:55.801Z,1338.75
2018-07-05T08:17:55.758Z,1636.88
2018-07-05T08:18:55.709Z,1501.88
2018-07-05T08:19:55.739Z,1102.50
2018-07-05T08:20:55.726Z,832.50
2018-07-05T08:21:55.738Z,849.38
2018-07-05T08:22:55.711Z,843.75
2018-07-05T08:23:55.695Z,877.50
2018-07-05T08:24:55.693Z,888.75
2018-07-05T08:25:56.569Z,1001.25
2018-07-05T08:26:55.700Z,990.00
2018-07-05T08:27:55.669Z,1035.00
2018-07-05T08:28:55.661Z,1350.00
2018-07-05T08:29:55.633Z,1282.50
2018-07-05T08:30:55.636Z,1231.88
2018-07-05T08:31:55.583Z,990.00
2018-07-05T08:32:55.604Z,843.75
2018-07-05T08:33:55.588Z,928.12
2018-07-05T08:34:55.598Z,821.25
2018-07-05T08:35:55.570Z,781.88
2018-07-05T08:36:55.607Z,748.12
2018-07-05T08:37:55.616Z,680.62
2018-07-05T08:38:55.540Z,658.12
2018-07-05T08:39:55.547Z,635.62
2018-07-05T08:40:55.481Z,618.75
2018-07-05T08:41:55.536Z,624.38
2018-07-05T08:42:55.510Z,618.75
2018-07-05T08:43:55.492Z,624.38
2018-07-05T08:44:55.505Z,635.62
2018-07-05T08:45:55.468Z,635.62
2018-07-05T08:46:55.635Z,607.50
2018-07-05T08:47:55.454Z,596.25
2018-07-05T08:48:55.457Z,579.38
2018-07-05T08:49:55.398Z,573.75
2018-07-05T08:50:55.433Z,562.50
2018-07-05T08:51:55.448Z,551.25
2018-07-05T08:52:55.405Z,551.25
2018-07-05T08:53:55.401Z,551.25
2018-07-05T08:54:55.380Z,545.62
2018-07-05T08:55:55.381Z,551.25
2018-07-05T08:56:55.390Z,534.38
2018-07-05T08:57:55.348Z,517.50
2018-07-05T08:58:55.341Z,511.88
2018-07-05T08:59:55.327Z,506.25
2018-07-05T09:00:55.317Z,506.25
2018-07-05T09:01:55.304Z,506.25
2018-07-05T09:02:55.335Z,517.50
2018-07-05T09:03:55.288Z,540.00
2018-07-05T09:04:55.286Z,556.88
2018-07-05T09:05:55.229Z,562.50
2018-07-05T09:06:55.211Z,568.12
2018-07-05T09:07:55.276Z,562.50
2018-07-05T09:08:55.240Z,568.12
2018-07-05T09:09:55.239Z,568.12
2018-07-05T09:10:55.213Z,562.50
2018-07-05T09:11:55.241Z,556.88
2018-07-05T09:12:55.217Z,562.50
2018-07-05T09:13:55.185Z,556.88
2018-07-05T09:14:55.180Z,556.88
2018-07-05T09:15:55.159Z,562.50
2018-07-05T09:16:55.153Z,562.50
2018-07-05T09:17:55.300Z,556.88
2018-07-05T09:18:55.085Z,562.50
2018-07-05T09:19:55.119Z,556.88
2018-07-05T09:20:55.120Z,556.88
2018-07-05T09:21:55.110Z,562.50
2018-07-05T09:22:55.121Z,562.50
2018-07-05T09:23:55.093Z,562.50
2018-07-05T09:24:55.040Z,562.50
2018-07-05T09:25:55.077Z,562.50
2018-07-05T09:26:55.052Z,562.50
2018-07-05T09:27:55.996Z,568.12
2018-07-05T09:28:55.027Z,568.12
2018-07-05T09:29:55.100Z,573.75
2018-07-05T09:30:55.015Z,568.12
2018-07-05T09:31:54.995Z,562.50
2018-07-05T09:32:55.005Z,562.50
2018-07-05T09:33:54.969Z,556.88
2018-07-05T09:34:54.969Z,562.50
2018-07-05T09:35:54.951Z,562.50
2018-07-05T09:36:54.945Z,568.12
2018-07-05T09:37:54.961Z,573.75
2018-07-05T09:38:54.925Z,573.75
2018-07-05T09:39:54.921Z,579.38
2018-07-05T09:40:54.905Z,579.38
2018-07-05T09:41:54.893Z,579.38
2018-07-05T09:42:55.049Z,579.38
2018-07-05T09:43:54.876Z,573.75
2018-07-05T09:44:54.858Z,573.75
2018-07-05T09:45:54.853Z,562.50
2018-07-05T09:46:54.851Z,556.88
2018-07-05T09:47:54.855Z,556.88
2018-07-05T09:48:54.825Z,551.25
2018-07-05T09:49:54.819Z,551.25
2018-07-05T09:50:54.808Z,545.62
2018-07-05T09:51:54.739Z,540.00
2018-07-05T09:52:54.802Z,545.62
2018-07-05T09:53:54.774Z,540.00
2018-07-05T09:54:54.723Z,540.00
2018-07-05T09:55:54.748Z,540.00
2018-07-05T09:56:54.733Z,551.25
2018-07-05T09:57:54.750Z,556.88
2018-07-05T09:58:54.676Z,562.50
2018-07-05T09:59:54.701Z,573.75
2018-07-05T10:00:54.704Z,579.38
2018-07-05T10:01:54.698Z,590.62
2018-07-05T10:02:54.700Z,596.25
2018-07-05T10:03:54.668Z,596.25
2018-07-05T10:04:54.655Z,601.88
2018-07-05T10:05:54.642Z,613.12
2018-07-05T10:06:54.637Z,618.75
2018-07-05T10:07:54.655Z,624.38
2018-07-05T10:08:54.607Z,630.00
2018-07-05T10:09:54.600Z,624.38
2018-07-05T10:10:54.592Z,624.38
2018-07-05T10:11:54.576Z,630.00
2018-07-05T10:12:54.689Z,641.25
2018-07-05T10:13:54.745Z,646.88
2018-07-05T10:14:54.548Z,658.12
2018-07-05T10:15:54.546Z,663.75
2018-07-05T10:16:54.525Z,669.38
2018-07-05T10:17:54.517Z,675.00
2018-07-05T10:18:54.549Z,691.88
2018-07-05T10:19:54.491Z,691.88
2018-07-05T10:20:54.488Z,697.50
2018-07-05T10:21:54.477Z,703.12
2018-07-05T10:22:54.582Z,731.25
2018-07-05T10:23:54.477Z,720.00
2018-07-05T10:24:54.450Z,708.75
2018-07-05T10:25:54.441Z,708.75
2018-07-05T10:26:54.464Z,697.50
2018-07-05T10:27:54.411Z,691.88
2018-07-05T10:28:54.421Z,691.88
2018-07-05T10:29:54.386Z,691.88
2018-07-05T10:30:54.390Z,686.25
2018-07-05T10:31:54.374Z,675.00
2018-07-05T10:32:54.383Z,669.38
2018-07-05T10:33:54.370Z,669.38
2018-07-05T10:34:54.337Z,675.00
2018-07-05T10:35:54.330Z,675.00
2018-07-05T10:36:54.279Z,663.75
2018-07-05T10:37:54.259Z,658.12
2018-07-05T10:38:54.488Z,646.88
2018-07-05T10:39:54.283Z,641.25
2018-07-05T10:40:54.275Z,635.62
2018-07-05T10:41:54.265Z,635.62
2018-07-05T10:42:54.255Z,630.00
2018-07-05T10:43:54.278Z,624.38
2018-07-05T10:44:54.236Z,618.75
2018-07-05T10:45:54.193Z,613.12
2018-07-05T10:46:54.211Z,607.50
2018-07-05T10:47:54.203Z,613.12
2018-07-05T10:48:54.213Z,613.12
2018-07-05T10:49:54.186Z,618.75
2018-07-05T10:50:54.179Z,618.75
2018-07-05T10:51:54.145Z,618.75
2018-07-05T10:52:54.153Z,624.38
2018-07-05T10:53:54.174Z,624.38
2018-07-05T10:54:54.160Z,624.38
2018-07-05T10:55:54.131Z,624.38
2018-07-05T10:56:54.120Z,624.38
2018-07-05T10:57:54.057Z,624.38
2018-07-05T10:58:54.109Z,624.38
2018-07-05T10:59:54.078Z,624.38
2018-07-05T11:00:54.029Z,624.38
2018-07-05T11:01:54.063Z,624.38
2018-07-05T11:02:54.048Z,635.62
2018-07-05T11:03:54.039Z,635.62
2018-07-05T11:04:54.032Z,635.62
2018-07-05T11:05:54.031Z,635.62
2018-07-05T11:06:54.019Z,630.00
2018-07-05T11:07:54.013Z,630.00
2018-07-05T11:08:54.011Z,630.00
2018-07-05T11:09:53.984Z,630.00
2018-07-05T11:10:53.972Z,630.00
2018-07-05T11:11:54.597Z,641.25
2018-07-05T11:12:54.137Z,624.38
2018-07-05T11:13:54.150Z,624.38
2018-07-05T11:14:54.043Z,630.00
2018-07-05T11:15:53.934Z,630.00
2018-07-05T11:16:54.026Z,635.62
2018-07-05T11:17:54.040Z,635.62
2018-07-05T11:18:54.055Z,630.00
2018-07-05T11:19:53.993Z,630.00
2018-07-05T11:20:53.991Z,624.38
2018-07-05T11:21:53.874Z,624.38
2018-07-05T11:22:53.840Z,624.38
2018-07-05T11:23:53.860Z,624.38
2018-07-05T11:24:53.818Z,618.75
2018-07-05T11:25:53.813Z,618.75
2018-07-05T11:26:53.800Z,618.75
2018-07-05T11:27:53.799Z,618.75
2018-07-05T11:28:53.819Z,618.75
2018-07-05T11:29:53.776Z,630.00
2018-07-05T11:30:53.762Z,624.38
2018-07-05T11:31:53.748Z,624.38
2018-07-05T11:32:53.749Z,624.38
2018-07-05T11:33:53.735Z,624.38
2018-07-05T11:34:53.883Z,618.75
2018-07-05T11:35:53.707Z,613.12
2018-07-05T11:36:53.706Z,607.50
2018-07-05T11:37:53.689Z,596.25
2018-07-05T11:38:54.539Z,596.25
2018-07-05T11:39:53.699Z,585.00
2018-07-05T11:40:53.654Z,585.00
2018-07-05T11:41:53.641Z,585.00
2018-07-05T11:42:53.649Z,562.50
2018-07-05T11:43:53.632Z,556.88
2018-07-05T11:44:53.669Z,551.25
2018-07-05T11:45:53.609Z,545.62
2018-07-05T11:46:53.665Z,540.00
2018-07-05T11:47:53.598Z,528.75
2018-07-05T11:48:53.582Z,517.50
2018-07-05T11:49:53.588Z,500.62
2018-07-05T11:50:53.515Z,489.38
2018-07-05T11:51:53.554Z,478.12
2018-07-05T11:52:53.540Z,478.12
2018-07-05T11:53:53.566Z,478.12
2018-07-05T11:54:53.597Z,472.50
2018-07-05T11:55:53.464Z,472.50
2018-07-05T11:56:53.498Z,478.12
2018-07-05T11:57:53.483Z,472.50
2018-07-05T11:58:53.584Z,472.50
2018-07-05T11:59:53.480Z,478.12
2018-07-05T12:00:53.445Z,472.50
2018-07-05T12:01:53.440Z,466.88
2018-07-05T12:02:53.459Z,461.25
2018-07-05T12:03:53.377Z,461.25
2018-07-05T12:04:53.395Z,455.62
2018-07-05T12:05:53.354Z,438.75
2018-07-05T12:06:53.385Z,427.50
2018-07-05T12:07:53.369Z,405.00
2018-07-05T12:08:53.362Z,382.50
2018-07-05T12:09:53.376Z,371.25
2018-07-05T12:10:53.340Z,354.38
2018-07-05T12:11:53.333Z,343.12
2018-07-05T12:12:53.331Z,337.50
2018-07-05T12:13:53.313Z,331.88
2018-07-05T12:14:53.411Z,331.88
2018-07-05T12:15:53.301Z,326.25
2018-07-05T12:16:53.243Z,320.62
2018-07-05T12:17:53.270Z,320.62
2018-07-05T12:18:53.254Z,320.62
2018-07-05T12:19:53.272Z,326.25
2018-07-05T12:20:53.256Z,337.50
2018-07-05T12:21:53.226Z,343.12
2018-07-05T12:22:53.169Z,348.75
2018-07-05T12:23:53.243Z,360.00
2018-07-05T12:24:53.218Z,360.00
2018-07-05T12:25:53.183Z,371.25
2018-07-05T12:26:53.174Z,376.88
2018-07-05T12:27:53.165Z,382.50
2018-07-05T12:28:53.147Z,388.12
2018-07-05T12:29:53.147Z,393.75
2018-07-05T12:30:53.138Z,399.38
2018-07-05T12:31:53.125Z,405.00
2018-07-05T12:32:53.114Z,410.62
2018-07-05T12:33:53.101Z,410.62
2018-07-05T12:34:53.091Z,410.62
2018-07-05T12:35:53.105Z,416.25
2018-07-05T12:36:53.065Z,416.25
2018-07-05T12:37:53.050Z,416.25
2018-07-05T12:38:53.067Z,416.25
2018-07-05T12:39:53.029Z,416.25
2018-07-05T12:40:53.051Z,421.88